Time,TemperatureF,DewpointF,PressureIn,WindDirection,WindDirectionDegrees,WindSpeedMPH,WindSpeedGustMPH,Humidity,HourlyPrecipIn,Conditions,Clouds,dailyrainin,SoftwareType,DateUTC
2016-07-30 00:02:00,71.0,69.0,29.88,SSE,164,0.0,3.0,93,0.00,,,0.55,weatherlink.com 1.10,2016-07-30 04:02:00,
2016-07-30 00:17:00,71.1,69.0,29.88,SSE,164,1.0,1.0,94,0.00,,,0.55,weatherlink.com 1.10,2016-07-30 04:17:00,
2016-07-30 00:31:00,71.1,69.0,29.88,SSE,164,0.0,1.0,94,0.00,,,0.55,weatherlink.com 1.10,2016-07-30 04:31:00,
2016-07-30 00:47:00,71.1,69.0,29.88,SSE,160,0.0,2.0,94,0.00,,,0.00,weatherlink.com 1.10,2016-07-30 04:47:00,
2016-07-30 01:02:00,70.9,69.0,29.89,SSE,159,1.0,2.0,93,0.00,,,0.00,weatherlink.com 1.10,2016-07-30 05:02:00,
2016-07-30 01:17:00,70.7,69.0,29.88,SSE,159,1.0,1.0,94,0.00,,,0.00,weatherlink.com 1.10,2016-07-30 05:17:00,
2016-07-30 01:32:00,71.1,69.0,29.88,SSE,159,0.0,1.0,93,0.00,,,0.00,weatherlink.com 1.10,2016-07-30 05:32:00,
2016-07-30 01:47:00,71.2,69.0,29.88,SSE,159,0.0,0.0,93,0.00,,,0.00,weatherlink.com 1.10,2016-07-30 05:47:00,
2016-07-30 02:02:00,71.2,69.0,29.88,SSE,159,0.0,2.0,93,0.00,,,0.00,weatherlink.com 1.10,2016-07-30 06:02:00,
2016-07-30 02:17:00,71.3,70.0,29.87,SSE,159,0.0,1.0,94,0.00,,,0.00,weatherlink.com 1.10,2016-07-30 06:17:00,
2016-07-30 02:32:00,71.0,69.0,29.87,SSE,159,0.0,0.0,93,0.00,,,0.00,weatherlink.com 1.10,2016-07-30 06:32:00,
2016-07-30 02:47:00,71.0,69.0,29.86,SSE,159,0.0,0.0,94,0.00,,,0.00,weatherlink.com 1.10,2016-07-30 06:47:00,
2016-07-30 03:02:00,70.8,69.0,29.86,SSE,159,0.0,0.0,94,0.00,,,0.00,weatherlink.com 1.10,2016-07-30 07:02:00,
2016-07-30 03:17:00,71.1,69.0,29.86,SSE,159,0.0,0.0,94,0.00,,,0.00,weatherlink.com 1.10,2016-07-30 07:17:00,
2016-07-30 03:32:00,71.1,69.0,29.86,SSE,159,0.0,0.0,94,0.00,,,0.00,weatherlink.com 1.10,2016-07-30 07:32:00,
2016-07-30 03:47:00,71.2,69.0,29.86,SSE,159,0.0,0.0,94,0.00,,,0.00,weatherlink.com 1.10,2016-07-30 07:47:00,
2016-07-30 04:02:00,71.0,69.0,29.86,SSE,159,0.0,0.0,94,0.00,,,0.00,weatherlink.com 1.10,2016-07-30 08:02:00,
2016-07-30 04:17:00,71.1,69.0,29.86,SSE,159,0.0,1.0,94,0.00,,,0.00,weatherlink.com 1.10,2016-07-30 08:17:00,
2016-07-30 04:32:00,71.1,69.0,29.86,SSE,159,0.0,1.0,94,0.00,,,0.00,weatherlink.com 1.10,2016-07-30 08:32:00,
2016-07-30 04:47:00,71.0,69.0,29.86,SSE,159,0.0,1.0,94,0.00,,,0.00,weatherlink.com 1.10,2016-07-30 08:47:00,
2016-07-30 05:02:00,70.8,69.0,29.86,SSE,159,0.0,0.0,94,0.00,,,0.00,weatherlink.com 1.10,2016-07-30 09:02:00,
2016-07-30 05:17:00,70.7,69.0,29.86,SSE,159,0.0,0.0,94,0.00,,,0.00,weatherlink.com 1.10,2016-07-30 09:17:00,
2016-07-30 05:32:00,70.4,69.0,29.87,SSE,159,0.0,1.0,94,0.00,,,0.00,weatherlink.com 1.10,2016-07-30 09:32:00,
2016-07-30 05:47:00,70.8,69.0,29.87,SSE,159,0.0,0.0,95,0.00,,,0.00,weatherlink.com 1.10,2016-07-30 09:47:00,
2016-07-30 06:02:00,70.6,69.0,29.87,SSE,159,0.0,0.0,94,0.00,,,0.00,weatherlink.com 1.10,2016-07-30 10:02:00,
2016-07-30 06:17:00,71.0,70.0,29.88,NNE,17,0.0,3.0,95,0.00,,,0.00,weatherlink.com 1.10,2016-07-30 10:17:00,
2016-07-30 06:32:00,71.4,70.0,29.89,NNE,17,0.0,0.0,95,0.00,,,0.00,weatherlink.com 1.10,2016-07-30 10:32:00,
2016-07-30 06:47:00,71.7,70.0,29.89,SSW,207,0.0,4.0,95,0.00,,,0.00,weatherlink.com 1.10,2016-07-30 10:47:00,
2016-07-30 07:02:00,72.1,71.0,29.90,WNW,294,0.0,4.0,95,0.00,,,0.00,weatherlink.com 1.10,2016-07-30 11:02:00,
2016-07-30 07:17:00,72.1,70.0,29.90,WNW,294,0.0,1.0,94,0.00,,,0.00,weatherlink.com 1.10,2016-07-30 11:17:00,
2016-07-30 07:32:00,71.9,70.0,29.90,SSE,165,0.0,4.0,94,0.00,,,0.00,weatherlink.com 1.10,2016-07-30 11:32:00,
2016-07-30 07:47:00,72.0,70.0,29.91,SSE,165,1.0,3.0,94,0.00,,,0.00,weatherlink.com 1.10,2016-07-30 11:47:00,
2016-07-30 08:02:00,72.4,71.0,29.91,SSE,165,0.0,3.0,94,0.00,,,0.00,weatherlink.com 1.10,2016-07-30 12:02:00,
2016-07-30 08:17:00,72.7,71.0,29.91,SSE,165,1.0,3.0,93,0.00,,,0.00,weatherlink.com 1.10,2016-07-30 12:17:00,
2016-07-30 08:32:00,72.8,71.0,29.92,South,186,3.0,5.0,93,0.00,,,0.00,weatherlink.com 1.10,2016-07-30 12:32:00,
2016-07-30 08:47:00,73.0,71.0,29.92,SSW,207,0.0,3.0,92,0.00,,,0.00,weatherlink.com 1.10,2016-07-30 12:47:00,
2016-07-30 09:02:00,73.4,71.0,29.92,SSW,207,0.0,4.0,92,0.00,,,0.00,weatherlink.com 1.10,2016-07-30 13:02:00,
2016-07-30 09:17:00,73.8,71.0,29.92,SSW,207,0.0,5.0,90,0.00,,,0.00,weatherlink.com 1.10,2016-07-30 13:17:00,
2016-07-30 09:32:00,73.9,71.0,29.93,SSW,201,0.0,4.0,90,0.00,,,0.00,weatherlink.com 1.10,2016-07-30 13:32:00,
2016-07-30 09:47:00,74.7,71.0,29.92,SSE,165,1.0,5.0,89,0.00,,,0.00,weatherlink.com 1.10,2016-07-30 13:47:00,
2016-07-30 10:02:00,74.9,71.0,29.93,South,175,1.0,10.0,88,0.00,,,0.00,weatherlink.com 1.10,2016-07-30 14:02:00,
2016-07-30 10:17:00,75.3,71.0,29.93,SW,227,2.0,7.0,87,0.00,,,0.00,weatherlink.com 1.10,2016-07-30 14:17:00,
2016-07-30 10:32:00,75.5,71.0,29.94,WSW,240,1.0,8.0,87,0.00,,,0.00,weatherlink.com 1.10,2016-07-30 14:32:00,
2016-07-30 10:47:00,76.0,72.0,29.94,WSW,254,2.0,7.0,86,0.00,,,0.00,weatherlink.com 1.10,2016-07-30 14:47:00,
2016-07-30 11:03:00,77.3,72.0,29.94,SSW,209,3.0,7.0,84,0.00,,,0.00,weatherlink.com 1.10,2016-07-30 15:03:00,
2016-07-30 11:18:00,78.1,72.0,29.94,SW,234,4.0,6.0,81,0.00,,,0.00,weatherlink.com 1.10,2016-07-30 15:18:00,
2016-07-30 11:33:00,78.9,72.0,29.94,NW,307,3.0,7.0,79,0.00,,,0.00,weatherlink.com 1.10,2016-07-30 15:33:00,
2016-07-30 11:48:00,80.3,72.0,29.94,SW,231,2.0,7.0,75,0.00,,,0.00,weatherlink.com 1.10,2016-07-30 15:48:00,
2016-07-30 12:03:00,80.7,71.0,29.94,West,277,3.0,7.0,73,0.00,,,0.00,weatherlink.com 1.10,2016-07-30 16:03:00,